createdAt,value
2023-05-25T00:00:03.406Z,0.50
2023-05-25T00:01:04.465Z,0.50
2023-05-25T00:02:04.443Z,0.50
2023-05-25T00:03:04.495Z,0.51
2023-05-25T00:04:03.584Z,0.50
2023-05-25T00:05:04.373Z,0.51
2023-05-25T00:06:03.360Z,0.50
2023-05-25T00:07:04.369Z,0.51
2023-05-25T00:08:04.375Z,0.52
2023-05-25T00:09:04.371Z,0.51
2023-05-25T00:10:03.352Z,0.51
2023-05-25T00:11:04.368Z,0.52
2023-05-25T00:12:03.360Z,0.51
2023-05-25T00:13:04.331Z,0.50
2023-05-25T00:14:03.372Z,0.50
2023-05-25T00:15:04.347Z,0.51
2023-05-25T00:16:04.315Z,0.50
2023-05-25T00:17:04.551Z,0.51
2023-05-25T00:18:04.335Z,0.51
2023-05-25T00:19:04.273Z,0.51
2023-05-25T00:20:04.279Z,0.52
2023-05-25T00:21:04.270Z,0.50
2023-05-25T00:22:03.249Z,0.50
2023-05-25T00:23:04.261Z,0.51
2023-05-25T00:24:03.250Z,0.52
2023-05-25T00:25:04.234Z,0.51
2023-05-25T00:26:04.225Z,0.51
2023-05-25T00:27:04.217Z,0.52
2023-05-25T00:28:04.199Z,0.51
2023-05-25T00:29:04.231Z,0.50
2023-05-25T00:30:03.182Z,0.51
2023-05-25T00:31:03.252Z,0.51
2023-05-25T00:32:03.190Z,0.51
2023-05-25T00:33:03.328Z,0.51
2023-05-25T00:34:04.162Z,0.50
2023-05-25T00:35:03.156Z,0.51
2023-05-25T00:36:03.159Z,0.52
2023-05-25T00:37:04.137Z,0.51
2023-05-25T00:38:04.148Z,0.50
2023-05-25T00:39:04.123Z,0.51
2023-05-25T00:40:04.099Z,0.51
2023-05-25T00:41:04.109Z,0.51
2023-05-25T00:42:04.097Z,0.51
2023-05-25T00:43:03.126Z,0.52
2023-05-25T00:44:04.109Z,0.51
2023-05-25T00:45:04.095Z,0.52
2023-05-25T00:46:03.126Z,0.51
2023-05-25T00:47:04.048Z,0.51
2023-05-25T00:48:04.123Z,0.51
2023-05-25T00:49:03.057Z,0.50
2023-05-25T00:50:04.057Z,0.51
2023-05-25T00:51:04.065Z,0.51
2023-05-25T00:52:04.045Z,0.51
2023-05-25T00:53:04.058Z,0.51
2023-05-25T00:54:04.035Z,0.51
2023-05-25T00:55:04.056Z,0.50
2023-05-25T00:56:04.061Z,0.51
2023-05-25T00:57:02.993Z,0.51
2023-05-25T00:58:03.971Z,0.51
2023-05-25T00:59:04.018Z,0.52
2023-05-25T01:00:03.967Z,0.51
2023-05-25T01:01:02.976Z,0.50
2023-05-25T01:02:04.059Z,0.50
2023-05-25T01:03:04.018Z,0.51
2023-05-25T01:04:03.036Z,0.50
2023-05-25T01:05:03.927Z,0.51
2023-05-25T01:06:02.954Z,0.51
2023-05-25T01:07:03.927Z,0.51
2023-05-25T01:08:02.930Z,0.52
2023-05-25T01:09:03.897Z,0.51
2023-05-25T01:10:02.921Z,0.51
2023-05-25T01:11:02.894Z,0.50
2023-05-25T01:12:02.883Z,0.50
2023-05-25T01:13:03.966Z,0.51
2023-05-25T01:14:02.976Z,0.51
2023-05-25T01:15:03.892Z,0.51
2023-05-25T01:16:03.916Z,0.51
2023-05-25T01:17:03.893Z,0.51
2023-05-25T01:18:03.868Z,0.51
2023-05-25T01:19:03.887Z,0.50
2023-05-25T01:20:10.419Z,0.50
2023-05-25T01:21:03.993Z,0.50
2023-05-25T01:22:02.811Z,0.51
2023-05-25T01:23:03.847Z,0.51
2023-05-25T01:24:03.898Z,0.51
2023-05-25T01:25:03.866Z,0.51
2023-05-25T01:26:03.853Z,0.51
2023-05-25T01:27:03.858Z,0.51
2023-05-25T01:28:03.800Z,0.51
2023-05-25T01:29:03.801Z,0.51
2023-05-25T01:30:02.878Z,0.52
2023-05-25T01:31:03.815Z,0.51
2023-05-25T01:32:03.844Z,0.50
2023-05-25T01:33:03.837Z,0.51
2023-05-25T01:34:02.750Z,0.50
2023-05-25T01:35:03.714Z,0.50
2023-05-25T01:36:03.702Z,0.51
2023-05-25T01:37:02.728Z,0.51
2023-05-25T01:38:03.675Z,0.50
2023-05-25T01:39:03.676Z,0.51
2023-05-25T01:40:03.655Z,0.51
2023-05-25T01:41:03.655Z,0.51
2023-05-25T01:42:03.655Z,0.51
2023-05-25T01:43:03.654Z,0.50
2023-05-25T01:44:03.659Z,0.51
2023-05-25T01:45:02.636Z,0.51
2023-05-25T01:46:03.684Z,0.50
2023-05-25T01:47:02.768Z,0.50
2023-05-25T01:48:03.625Z,0.50
2023-05-25T01:49:02.611Z,0.51
2023-05-25T01:50:03.602Z,0.51
2023-05-25T01:51:02.601Z,0.51
2023-05-25T01:52:02.613Z,0.51
2023-05-25T01:53:03.602Z,0.51
2023-05-25T01:54:02.557Z,0.51
2023-05-25T01:55:02.540Z,0.51
2023-05-25T01:56:02.559Z,0.50
2023-05-25T01:57:03.534Z,0.51
2023-05-25T01:58:02.556Z,0.52
2023-05-25T01:59:03.543Z,0.51
2023-05-25T02:00:02.524Z,0.51
2023-05-25T02:01:02.604Z,0.52
2023-05-25T02:02:03.632Z,0.51
2023-05-25T02:03:03.597Z,0.51
2023-05-25T02:04:02.511Z,0.50
2023-05-25T02:05:02.487Z,0.51
2023-05-25T02:06:03.489Z,0.51
2023-05-25T02:07:02.488Z,0.52
2023-05-25T02:08:03.496Z,0.50
2023-05-25T02:09:03.445Z,0.51
2023-05-25T02:10:03.560Z,0.51
2023-05-25T02:11:03.537Z,0.52
2023-05-25T02:12:03.465Z,0.51
2023-05-25T02:13:03.530Z,0.51
2023-05-25T02:14:03.482Z,0.51
2023-05-25T02:15:02.542Z,0.51
2023-05-25T02:16:03.454Z,0.50
2023-05-25T02:17:03.422Z,0.52
2023-05-25T02:18:03.453Z,0.51
2023-05-25T02:19:02.405Z,0.50
2023-05-25T02:20:03.428Z,0.51
2023-05-25T02:21:02.435Z,0.51
2023-05-25T02:22:03.365Z,0.51
2023-05-25T02:23:03.351Z,0.51
2023-05-25T02:24:02.366Z,0.51
2023-05-25T02:25:03.372Z,0.51
2023-05-25T02:26:02.363Z,0.51
2023-05-25T02:27:03.441Z,0.51
2023-05-25T02:28:03.425Z,0.51
2023-05-25T02:29:03.417Z,0.52
2023-05-25T02:30:03.374Z,0.51
2023-05-25T02:31:03.430Z,0.51
2023-05-25T02:32:03.359Z,0.50
2023-05-25T02:33:02.425Z,0.51
2023-05-25T02:34:02.333Z,0.51
2023-05-25T02:35:03.328Z,0.52
2023-05-25T02:36:03.302Z,0.52
2023-05-25T02:37:03.315Z,0.51
2023-05-25T02:38:03.263Z,0.51
2023-05-25T02:39:03.311Z,0.51
2023-05-25T02:40:03.333Z,0.50
2023-05-25T02:41:03.253Z,0.52
2023-05-25T02:42:02.231Z,0.51
2023-05-25T02:43:03.251Z,0.50
2023-05-25T02:44:03.237Z,0.51
2023-05-25T02:45:02.255Z,0.51
2023-05-25T02:46:02.255Z,0.51
2023-05-25T02:47:02.665Z,0.51
2023-05-25T02:48:02.343Z,0.51
2023-05-25T02:49:03.334Z,0.51
2023-05-25T02:50:03.343Z,0.50
2023-05-25T02:51:03.328Z,0.51
2023-05-25T02:52:03.296Z,0.51
2023-05-25T02:53:03.340Z,0.50
2023-05-25T02:54:03.345Z,0.51
2023-05-25T02:55:02.394Z,0.50
2023-05-25T02:56:02.338Z,0.51
2023-05-25T02:57:02.490Z,0.51
2023-05-25T02:58:02.379Z,0.51
2023-05-25T02:59:03.392Z,0.50
2023-05-25T03:00:03.387Z,0.52
2023-05-25T03:01:03.491Z,0.51
2023-05-25T03:02:03.407Z,0.52
2023-05-25T03:03:02.482Z,0.51
2023-05-25T03:04:03.655Z,0.52
2023-05-25T03:05:04.592Z,0.51
2023-05-25T03:06:03.523Z,0.51
2023-05-25T03:07:03.528Z,0.50
2023-05-25T03:08:02.488Z,0.51
2023-05-25T03:09:02.477Z,0.51
2023-05-25T03:10:03.512Z,0.51
2023-05-25T03:11:03.516Z,0.50
2023-05-25T03:12:02.530Z,0.50
2023-05-25T03:13:03.569Z,0.51
2023-05-25T03:14:03.556Z,0.51
2023-05-25T03:15:03.666Z,0.51
2023-05-25T03:16:02.574Z,0.50
2023-05-25T03:17:02.901Z,0.51
2023-05-25T03:18:03.674Z,0.50
2023-05-25T03:19:02.631Z,0.52
2023-05-25T03:20:03.695Z,0.51
2023-05-25T03:21:02.703Z,0.50
2023-05-25T03:22:02.746Z,0.50
2023-05-25T03:23:02.737Z,0.51
2023-05-25T03:24:03.744Z,0.51
2023-05-25T03:25:03.778Z,0.51
2023-05-25T03:26:03.805Z,0.51
2023-05-25T03:27:02.802Z,0.51
2023-05-25T03:28:03.788Z,0.51
2023-05-25T03:29:03.788Z,0.51
2023-05-25T03:30:02.855Z,0.51
2023-05-25T03:31:03.799Z,0.51
2023-05-25T03:32:03.898Z,0.51
2023-05-25T03:33:03.960Z,0.51
2023-05-25T03:34:03.920Z,0.52
2023-05-25T03:35:02.921Z,0.51
2023-05-25T03:36:03.914Z,0.51
2023-05-25T03:37:02.908Z,0.51
2023-05-25T03:38:02.915Z,0.51
2023-05-25T03:39:03.966Z,0.51
2023-05-25T03:40:02.959Z,0.51
2023-05-25T03:41:03.019Z,0.50
2023-05-25T03:42:03.973Z,0.51
2023-05-25T03:43:02.998Z,0.51
2023-05-25T03:44:03.040Z,0.51
2023-05-25T03:45:04.011Z,0.51
2023-05-25T03:46:03.063Z,0.50
2023-05-25T03:47:04.037Z,0.50
2023-05-25T03:48:04.167Z,0.51
2023-05-25T03:49:04.089Z,0.52
2023-05-25T03:50:04.126Z,0.52
2023-05-25T03:51:04.116Z,0.51
2023-05-25T03:52:03.109Z,0.51
2023-05-25T03:53:04.126Z,0.51
2023-05-25T03:54:03.158Z,0.51
2023-05-25T03:55:03.223Z,0.51
2023-05-25T03:56:04.183Z,0.51
2023-05-25T03:57:04.256Z,0.51
2023-05-25T03:58:04.251Z,0.52
2023-05-25T03:59:04.249Z,0.50
2023-05-25T04:00:04.302Z,0.51
2023-05-25T04:01:05.256Z,0.51
2023-05-25T04:02:04.307Z,0.50
2023-05-25T04:03:03.411Z,0.51
2023-05-25T04:04:03.386Z,0.50
2023-05-25T04:05:04.376Z,0.51
2023-05-25T04:06:04.362Z,0.51
2023-05-25T04:07:04.389Z,0.51
2023-05-25T04:08:03.416Z,0.51
2023-05-25T04:09:04.441Z,0.51
2023-05-25T04:10:04.464Z,0.51
2023-05-25T04:11:04.472Z,0.51
2023-05-25T04:12:03.460Z,0.51
2023-05-25T04:13:04.489Z,0.51
2023-05-25T04:14:04.497Z,0.50
2023-05-25T04:15:03.523Z,0.52
2023-05-25T04:16:04.606Z,0.50
2023-05-25T04:17:03.582Z,0.51
2023-05-25T04:18:03.611Z,0.51
2023-05-25T04:19:04.669Z,0.50
2023-05-25T04:20:03.773Z,0.51
2023-05-25T04:21:03.639Z,0.51
2023-05-25T04:22:04.710Z,0.51
2023-05-25T04:23:03.794Z,0.51
2023-05-25T04:24:03.728Z,0.51
2023-05-25T04:25:04.777Z,0.51
2023-05-25T04:26:04.861Z,0.51
2023-05-25T04:27:03.850Z,0.50
2023-05-25T04:28:04.771Z,0.52
2023-05-25T04:29:04.793Z,0.51
2023-05-25T04:30:04.805Z,0.51
2023-05-25T04:31:04.968Z,0.50
2023-05-25T04:32:04.894Z,0.51
2023-05-25T04:33:03.912Z,0.52
2023-05-25T04:34:03.911Z,0.51
2023-05-25T04:35:04.911Z,0.51
2023-05-25T04:36:04.950Z,0.52
2023-05-25T04:37:03.927Z,0.51
2023-05-25T04:38:04.971Z,0.50
2023-05-25T04:39:04.987Z,0.51
2023-05-25T04:40:05.028Z,0.51
2023-05-25T04:41:05.066Z,0.52
2023-05-25T04:42:05.184Z,0.52
2023-05-25T04:43:05.110Z,0.51
2023-05-25T04:44:09.792Z,0.51
2023-05-25T04:45:05.113Z,0.51
2023-05-25T04:46:05.178Z,0.52
2023-05-25T04:47:05.093Z,0.52
2023-05-25T04:48:04.103Z,0.52
2023-05-25T04:49:05.070Z,0.52
2023-05-25T04:50:05.068Z,0.52
2023-05-25T04:51:04.058Z,0.51
2023-05-25T04:52:05.073Z,0.51
2023-05-25T04:53:04.082Z,0.51
2023-05-25T04:54:05.048Z,0.51
2023-05-25T04:55:04.049Z,0.51
2023-05-25T04:56:05.004Z,0.51
2023-05-25T04:57:04.003Z,0.51
2023-05-25T04:58:04.000Z,0.51
2023-05-25T04:59:04.026Z,0.51
2023-05-25T05:00:05.010Z,0.51
2023-05-25T05:01:05.026Z,0.50
2023-05-25T05:02:04.990Z,0.51
2023-05-25T05:03:05.079Z,0.51
2023-05-25T05:04:04.061Z,0.51
2023-05-25T05:05:05.018Z,0.52
2023-05-25T05:06:04.938Z,0.51
2023-05-25T05:07:04.955Z,0.51
2023-05-25T05:08:05.013Z,0.51
2023-05-25T05:09:03.937Z,0.51
2023-05-25T05:10:04.173Z,0.51
2023-05-25T05:11:05.118Z,0.51
2023-05-25T05:12:04.991Z,0.51
2023-05-25T05:13:05.070Z,0.51
2023-05-25T05:14:05.103Z,0.51
2023-05-25T05:15:04.974Z,0.51
2023-05-25T05:16:05.052Z,0.50
2023-05-25T05:17:05.089Z,0.50
2023-05-25T05:18:05.110Z,0.51
2023-05-25T05:19:05.007Z,0.52
2023-05-25T05:20:05.023Z,0.51
2023-05-25T05:21:04.852Z,0.50
2023-05-25T05:22:04.883Z,0.51
2023-05-25T05:23:04.994Z,0.51
2023-05-25T05:24:03.965Z,0.51
2023-05-25T05:26:22.916Z,0.50
2023-05-25T05:27:23.938Z,0.50
2023-05-25T05:28:23.897Z,0.50
2023-05-25T05:29:22.925Z,0.50
2023-05-25T05:30:22.953Z,0.50
2023-05-25T05:31:23.921Z,0.50
2023-05-25T05:32:23.897Z,0.51
2023-05-25T05:33:24.002Z,0.50
2023-05-25T05:34:23.870Z,0.51
2023-05-25T05:35:22.854Z,0.51
2023-05-25T05:36:23.844Z,0.51
2023-05-25T05:37:23.833Z,0.51
2023-05-25T05:38:22.835Z,0.50
2023-05-25T05:39:23.819Z,0.50
2023-05-25T05:40:22.813Z,0.51
2023-05-25T05:41:22.815Z,0.51
2023-05-25T05:42:22.806Z,0.51
2023-05-25T05:43:22.786Z,0.51
2023-05-25T05:44:26.841Z,0.50
2023-05-25T05:45:23.785Z,0.50
2023-05-25T05:46:23.847Z,0.50
2023-05-25T05:47:23.795Z,0.50
2023-05-25T05:48:22.752Z,0.50
2023-05-25T05:49:22.758Z,0.51
2023-05-25T05:50:23.753Z,0.51
2023-05-25T05:51:22.734Z,0.50
2023-05-25T05:52:22.725Z,0.50
2023-05-25T05:53:23.716Z,0.50
2023-05-25T05:54:23.717Z,0.51
2023-05-25T05:55:23.721Z,0.51
2023-05-25T05:56:23.741Z,0.51
2023-05-25T05:57:23.675Z,0.51
2023-05-25T05:58:22.669Z,0.50
2023-05-25T05:59:22.664Z,0.50
2023-05-25T06:00:24.104Z,0.51
2023-05-25T06:01:22.657Z,0.50
2023-05-25T06:02:22.775Z,0.50
2023-05-25T06:03:22.721Z,0.51
2023-05-25T06:04:23.648Z,0.51
2023-05-25T06:05:23.669Z,0.51
2023-05-25T06:06:23.622Z,0.52
2023-05-25T06:07:23.633Z,0.50
2023-05-25T06:08:22.638Z,0.50
2023-05-25T06:09:23.635Z,0.51
2023-05-25T06:10:23.628Z,0.51
2023-05-25T06:11:22.601Z,0.51
2023-05-25T06:12:22.589Z,0.51
2023-05-25T06:13:22.597Z,0.52
2023-05-25T06:14:24.147Z,0.51
2023-05-25T06:15:22.658Z,0.51
2023-05-25T06:16:23.681Z,0.51
2023-05-25T06:17:23.715Z,0.51
2023-05-25T06:18:23.673Z,0.51
2023-05-25T06:19:23.660Z,0.52
2023-05-25T06:20:23.777Z,0.51
2023-05-25T06:21:23.689Z,0.51
2023-05-25T06:22:22.712Z,0.51
2023-05-25T06:23:22.702Z,0.51
2023-05-25T06:24:23.722Z,0.52
2023-05-25T06:25:22.709Z,0.52
2023-05-25T06:26:22.728Z,0.52
2023-05-25T06:27:23.739Z,0.51
2023-05-25T06:28:23.773Z,0.51
2023-05-25T06:29:22.782Z,0.51
2023-05-25T06:30:22.810Z,0.51
2023-05-25T06:31:22.914Z,0.51
2023-05-25T06:32:22.910Z,0.50
2023-05-25T06:33:22.900Z,0.52
2023-05-25T06:34:24.022Z,0.51
2023-05-25T06:35:24.014Z,0.51
2023-05-25T06:36:24.070Z,0.52
2023-05-25T06:37:24.111Z,0.52
2023-05-25T06:38:53.693Z,0.52
2023-05-25T06:39:24.138Z,0.52
2023-05-25T06:40:23.145Z,0.52
2023-05-25T06:41:24.147Z,0.52
2023-05-25T06:42:24.159Z,0.53
2023-05-25T06:43:24.113Z,0.52
2023-05-25T06:44:24.118Z,0.53
2023-05-25T06:45:24.120Z,0.53
2023-05-25T06:46:24.136Z,0.52
2023-05-25T06:47:24.097Z,0.51
2023-05-25T06:48:23.085Z,0.52
2023-05-25T06:49:24.080Z,0.52
2023-05-25T06:50:24.141Z,0.52
2023-05-25T06:51:24.075Z,0.51
2023-05-25T06:52:23.087Z,0.52
2023-05-25T06:53:24.048Z,0.52
2023-05-25T06:54:24.041Z,0.52
2023-05-25T06:55:24.035Z,0.52
2023-05-25T06:56:23.124Z,0.51
2023-05-25T06:57:23.018Z,0.50
2023-05-25T06:58:23.043Z,0.50
2023-05-25T06:59:22.995Z,0.47
2023-05-25T07:00:23.998Z,0.50
2023-05-25T07:01:24.009Z,0.51
2023-05-25T07:02:23.998Z,0.51
2023-05-25T07:03:23.972Z,0.55
2023-05-25T07:04:23.962Z,0.65
2023-05-25T07:05:23.011Z,0.68
2023-05-25T07:06:23.979Z,0.68
2023-05-25T07:07:23.938Z,0.69
2023-05-25T07:08:23.927Z,0.69
2023-05-25T07:09:23.933Z,0.71
2023-05-25T07:10:23.932Z,0.69
2023-05-25T07:11:23.963Z,0.62
2023-05-25T07:12:22.909Z,0.63
2023-05-25T07:13:23.905Z,0.66
2023-05-25T07:14:22.896Z,0.69
2023-05-25T07:15:22.890Z,0.69
2023-05-25T07:16:22.950Z,0.69
2023-05-25T07:17:22.995Z,0.71
2023-05-25T07:18:24.037Z,0.74
2023-05-25T07:19:23.060Z,0.75
2023-05-25T07:20:24.095Z,0.76
2023-05-25T07:21:24.125Z,0.77
2023-05-25T07:22:23.150Z,0.78
2023-05-25T07:23:24.149Z,0.81
2023-05-25T07:24:24.205Z,0.81
2023-05-25T07:25:24.201Z,0.82
2023-05-25T07:26:23.246Z,0.82
2023-05-25T07:27:24.219Z,0.84
2023-05-25T07:28:24.236Z,0.86
2023-05-25T07:29:24.260Z,0.85
2023-05-25T07:30:24.317Z,0.86
2023-05-25T07:31:23.279Z,0.84
2023-05-25T07:32:24.307Z,0.88
2023-05-25T07:33:24.302Z,0.89
2023-05-25T07:34:25.760Z,0.89
2023-05-25T07:35:24.283Z,0.97
2023-05-25T07:36:24.290Z,1.04
2023-05-25T07:37:24.269Z,1.05
2023-05-25T07:38:23.304Z,1.08
2023-05-25T07:39:23.251Z,1.08
2023-05-25T07:40:24.251Z,1.09
2023-05-25T07:41:24.278Z,1.08
2023-05-25T07:42:23.220Z,1.06
2023-05-25T07:43:24.267Z,1.05
2023-05-25T07:44:24.225Z,1.06
2023-05-25T07:45:24.218Z,1.08
2023-05-25T07:46:24.696Z,1.11
2023-05-25T07:47:24.322Z,1.11
2023-05-25T07:48:24.172Z,1.11
2023-05-25T07:49:24.186Z,1.13
2023-05-25T07:50:23.313Z,1.11
2023-05-25T07:51:24.644Z,1.06
2023-05-25T07:52:24.176Z,1.14
2023-05-25T07:53:24.138Z,1.14
2023-05-25T07:54:24.176Z,1.16
2023-05-25T07:55:24.127Z,1.15
2023-05-25T07:56:23.128Z,1.15
2023-05-25T07:57:23.116Z,1.09
2023-05-25T07:58:24.111Z,1.18
2023-05-25T07:59:23.116Z,1.16
2023-05-25T08:00:24.093Z,1.18
2023-05-25T08:01:26.755Z,1.20
2023-05-25T08:02:24.185Z,1.20
2023-05-25T08:03:31.729Z,1.21
2023-05-25T08:04:24.163Z,1.21
2023-05-25T08:05:24.082Z,1.21
2023-05-25T08:06:23.060Z,1.16
2023-05-25T08:07:24.042Z,1.20
2023-05-25T08:08:24.037Z,1.15
2023-05-25T08:09:24.023Z,1.20
2023-05-25T08:10:24.035Z,1.22
2023-05-25T08:11:24.024Z,1.22
2023-05-25T08:12:38.391Z,1.20
2023-05-25T08:13:23.991Z,1.20
2023-05-25T08:14:24.011Z,1.21
2023-05-25T08:15:23.976Z,1.21
2023-05-25T08:16:24.095Z,1.22
2023-05-25T08:17:24.095Z,1.23
2023-05-25T08:18:22.959Z,1.21
2023-05-25T08:19:22.969Z,1.16
2023-05-25T08:20:23.007Z,1.22
2023-05-25T08:21:23.938Z,1.23
2023-05-25T08:22:23.936Z,1.17
2023-05-25T08:23:23.933Z,1.17
2023-05-25T08:24:22.910Z,1.21
2023-05-25T08:25:23.948Z,1.21
2023-05-25T08:26:41.297Z,1.21
2023-05-25T08:27:23.901Z,1.21
2023-05-25T08:28:23.893Z,1.22
2023-05-25T08:29:23.888Z,1.21
2023-05-25T08:30:23.882Z,1.21
2023-05-25T08:31:23.916Z,1.20
2023-05-25T08:32:22.917Z,1.20
2023-05-25T08:33:25.911Z,1.22
2023-05-25T08:34:22.844Z,1.19
2023-05-25T08:35:23.868Z,1.22
2023-05-25T08:36:23.835Z,1.19
2023-05-25T08:37:23.829Z,1.20
2023-05-25T08:38:22.819Z,1.14
2023-05-25T08:39:23.817Z,1.19
2023-05-25T08:40:23.800Z,1.18
2023-05-25T08:41:23.820Z,1.17
2023-05-25T08:42:23.825Z,1.17
2023-05-25T08:43:22.803Z,1.17
2023-05-25T08:44:23.797Z,1.14
2023-05-25T08:45:34.165Z,1.18
2023-05-25T08:46:23.773Z,1.18
2023-05-25T08:47:22.757Z,1.18
2023-05-25T08:49:22.769Z,1.18
2023-05-25T08:50:22.736Z,1.18
2023-05-25T08:51:23.736Z,1.15
2023-05-25T08:52:22.720Z,1.19
2023-05-25T08:53:24.666Z,1.17
2023-05-25T08:54:23.688Z,1.21
2023-05-25T08:55:22.679Z,1.20
2023-05-25T08:56:24.173Z,1.18
2023-05-25T08:57:23.682Z,1.14
2023-05-25T08:58:23.695Z,1.14
2023-05-25T08:59:22.660Z,1.15
2023-05-25T09:00:22.661Z,1.14
2023-05-25T09:01:23.753Z,1.14
2023-05-25T09:02:24.288Z,1.11
2023-05-25T09:03:23.738Z,1.15
2023-05-25T09:04:23.610Z,1.16
2023-05-25T09:05:22.668Z,1.15
2023-05-25T09:06:23.618Z,1.10
2023-05-25T09:07:23.602Z,1.10
2023-05-25T09:08:23.584Z,1.11
2023-05-25T09:09:23.604Z,1.07
2023-05-25T09:10:23.585Z,1.13
2023-05-25T09:11:35.939Z,1.13
2023-05-25T09:12:23.590Z,1.13
2023-05-25T09:13:23.565Z,1.14
2023-05-25T09:14:22.580Z,1.13
2023-05-25T09:15:22.551Z,1.14
2023-05-25T09:16:23.636Z,1.10
2023-05-25T09:17:22.514Z,1.09
2023-05-25T09:18:23.552Z,1.13
2023-05-25T09:19:22.521Z,1.10
2023-05-25T09:20:22.589Z,1.08
2023-05-25T09:21:23.518Z,1.05
2023-05-25T09:22:22.511Z,1.09
2023-05-25T09:23:23.484Z,1.09
2023-05-25T09:24:23.487Z,1.12
2023-05-25T09:25:22.483Z,1.11
2023-05-25T09:26:23.465Z,1.10
2023-05-25T09:27:22.465Z,1.08
2023-05-25T09:28:26.708Z,1.06
2023-05-25T09:29:23.446Z,1.06
2023-05-25T09:30:23.452Z,1.04
2023-05-25T09:31:23.433Z,1.07
2023-05-25T09:32:22.507Z,1.02
2023-05-25T09:33:23.412Z,1.03
2023-05-25T09:34:23.424Z,1.08
2023-05-25T09:35:23.405Z,1.09
2023-05-25T09:36:22.506Z,1.08
2023-05-25T09:37:23.518Z,1.08
2023-05-25T09:38:22.816Z,1.09
2023-05-25T09:39:23.548Z,1.06
2023-05-25T09:40:23.389Z,1.05
2023-05-25T09:41:23.374Z,1.00
2023-05-25T09:42:23.365Z,1.00
2023-05-25T09:43:39.588Z,1.00
2023-05-25T09:44:23.337Z,1.00
2023-05-25T09:45:23.351Z,1.01
2023-05-25T09:46:23.372Z,1.03
2023-05-25T09:47:23.733Z,1.07
2023-05-25T09:48:22.315Z,1.05
2023-05-25T09:49:23.304Z,1.03
2023-05-25T09:50:22.285Z,1.10
2023-05-25T09:51:22.283Z,1.06
2023-05-25T09:52:22.688Z,1.06
2023-05-25T09:53:22.257Z,1.06
2023-05-25T09:54:23.253Z,1.07
2023-05-25T09:55:23.248Z,1.04
2023-05-25T09:56:23.254Z,1.05
2023-05-25T09:57:23.251Z,1.03
2023-05-25T09:58:23.236Z,1.02
2023-05-25T09:59:22.258Z,0.99
2023-05-25T10:00:23.222Z,1.03
2023-05-25T10:01:22.235Z,1.04
2023-05-25T10:02:23.238Z,1.05
2023-05-25T10:03:22.189Z,0.96
2023-05-25T10:04:23.196Z,1.03
2023-05-25T10:05:22.186Z,1.00
2023-05-25T10:06:22.176Z,1.00
2023-05-25T10:07:23.162Z,1.01
2023-05-25T10:08:22.158Z,0.97
2023-05-25T10:09:23.159Z,1.08
2023-05-25T10:10:22.143Z,0.98
2023-05-25T10:11:23.151Z,1.03
2023-05-25T10:12:22.123Z,0.98
2023-05-25T10:13:23.133Z,1.05
2023-05-25T10:14:23.121Z,0.98
2023-05-25T10:15:23.102Z,1.03
2023-05-25T10:16:22.119Z,0.97
2023-05-25T10:17:23.185Z,1.04
2023-05-25T10:18:23.154Z,1.01
2023-05-25T10:19:23.101Z,1.04
2023-05-25T10:20:23.125Z,1.01
2023-05-25T10:21:22.137Z,0.97
2023-05-25T10:22:23.161Z,0.98
2023-05-25T10:23:22.145Z,1.00
2023-05-25T10:24:22.152Z,0.99
2023-05-25T10:25:22.165Z,0.97
2023-05-25T10:26:23.162Z,0.98
2023-05-25T10:27:26.935Z,0.97
2023-05-25T10:28:23.147Z,0.97
2023-05-25T10:29:23.169Z,0.97
2023-05-25T10:30:23.134Z,0.99
2023-05-25T10:31:23.143Z,0.98
2023-05-25T10:32:22.126Z,0.97
2023-05-25T10:33:22.108Z,1.04
2023-05-25T10:34:23.137Z,0.97
2023-05-25T10:35:23.101Z,1.02
2023-05-25T10:36:22.096Z,0.95
2023-05-25T10:37:23.080Z,0.93
2023-05-25T10:38:22.087Z,0.98
2023-05-25T10:39:23.147Z,0.97
2023-05-25T10:40:23.073Z,0.93
2023-05-25T10:41:23.057Z,0.99
2023-05-25T10:42:23.052Z,1.04
2023-05-25T10:43:23.032Z,0.97
2023-05-25T10:44:23.030Z,1.02
2023-05-25T10:45:22.012Z,0.98
2023-05-25T10:46:23.080Z,1.06
2023-05-25T10:47:23.319Z,0.93
2023-05-25T10:48:23.072Z,0.99
2023-05-25T10:49:22.986Z,0.97
2023-05-25T10:50:23.111Z,0.97
2023-05-25T10:51:21.994Z,1.01
2023-05-25T10:52:22.988Z,0.97
2023-05-25T10:53:21.957Z,0.97
2023-05-25T10:54:22.961Z,1.00
2023-05-25T10:55:21.934Z,0.96
2023-05-25T10:56:22.940Z,0.97
2023-05-25T10:57:21.967Z,0.99
2023-05-25T10:58:22.941Z,0.97
2023-05-25T10:59:22.913Z,0.97
2023-05-25T11:00:22.937Z,0.95
2023-05-25T11:01:23.032Z,0.92
2023-05-25T11:02:22.953Z,0.96
2023-05-25T11:03:22.881Z,0.98
2023-05-25T11:04:21.925Z,0.99
2023-05-25T11:05:21.880Z,0.96
2023-05-25T11:06:22.940Z,0.94
2023-05-25T11:07:22.866Z,0.97
2023-05-25T11:08:21.848Z,0.96
2023-05-25T11:09:22.842Z,0.97
2023-05-25T11:10:22.836Z,0.99
2023-05-25T11:11:22.833Z,0.95
2023-05-25T11:12:21.875Z,0.98
2023-05-25T11:13:21.833Z,0.96
2023-05-25T11:14:22.810Z,0.94
2023-05-25T11:15:22.797Z,0.98
2023-05-25T11:16:22.887Z,0.95
2023-05-25T11:17:22.851Z,0.98
2023-05-25T11:18:22.792Z,0.94
2023-05-25T11:19:21.811Z,0.95
2023-05-25T11:20:21.805Z,0.91
2023-05-25T11:21:22.773Z,0.96
2023-05-25T11:22:22.935Z,0.93
2023-05-25T11:23:22.747Z,0.98
2023-05-25T11:24:22.748Z,0.92
2023-05-25T11:25:22.743Z,0.97
2023-05-25T11:26:22.725Z,0.97
2023-05-25T11:27:21.785Z,0.99
2023-05-25T11:28:22.735Z,0.93
2023-05-25T11:29:21.707Z,0.91
2023-05-25T11:30:22.710Z,0.98
2023-05-25T11:31:22.722Z,0.91
2023-05-25T11:32:22.764Z,0.95
2023-05-25T11:33:21.696Z,0.97
2023-05-25T11:34:21.685Z,0.96
2023-05-25T11:35:21.705Z,0.96
2023-05-25T11:36:22.680Z,0.91
2023-05-25T11:37:22.817Z,0.92
2023-05-25T11:38:22.709Z,0.91
2023-05-25T11:39:23.337Z,1.00
2023-05-25T11:40:22.641Z,0.96
2023-05-25T11:41:22.647Z,0.93
2023-05-25T11:42:22.726Z,0.90
2023-05-25T11:43:22.622Z,0.90
2023-05-25T11:44:22.625Z,0.89
2023-05-25T11:45:22.595Z,0.97
2023-05-25T11:46:22.630Z,0.94
2023-05-25T11:47:22.680Z,0.91
2023-05-25T11:48:22.614Z,0.92
2023-05-25T11:49:21.605Z,0.91
2023-05-25T11:50:22.643Z,0.93
2023-05-25T11:51:21.558Z,0.94
2023-05-25T11:52:21.582Z,0.93
2023-05-25T11:53:22.545Z,0.95
2023-05-25T11:54:22.570Z,0.91
2023-05-25T11:55:22.549Z,0.93
2023-05-25T11:56:34.327Z,0.93
2023-05-25T11:57:22.577Z,0.94
2023-05-25T11:58:22.510Z,0.94
2023-05-25T11:59:23.695Z,0.94
2023-05-25T12:00:22.655Z,0.94
2023-05-25T12:01:22.487Z,0.94
2023-05-25T12:02:21.528Z,0.94
2023-05-25T12:03:22.557Z,0.96
2023-05-25T12:04:24.010Z,0.96
2023-05-25T12:05:21.522Z,0.94
2023-05-25T12:06:21.468Z,0.94
2023-05-25T12:07:22.456Z,0.94
2023-05-25T12:08:22.458Z,0.94
2023-05-25T12:09:21.443Z,0.92
2023-05-25T12:10:22.518Z,0.91
2023-05-25T12:11:22.460Z,0.95
2023-05-25T12:12:22.443Z,0.93
2023-05-25T12:13:22.425Z,0.92
2023-05-25T12:14:22.416Z,0.92
2023-05-25T12:15:22.430Z,0.92
2023-05-25T12:16:22.485Z,0.92
2023-05-25T12:17:21.512Z,0.92
2023-05-25T12:18:22.404Z,0.91
2023-05-25T12:19:22.387Z,0.94
2023-05-25T12:20:21.506Z,0.92
2023-05-25T12:21:22.383Z,0.92
2023-05-25T12:22:22.368Z,0.91
2023-05-25T12:23:22.364Z,0.90
2023-05-25T12:24:21.344Z,0.93
2023-05-25T12:25:21.339Z,0.94
2023-05-25T12:26:22.362Z,1.00
2023-05-25T12:27:22.326Z,0.97
2023-05-25T12:28:22.318Z,0.94
2023-05-25T12:29:21.306Z,0.94
2023-05-25T12:30:21.277Z,0.94
2023-05-25T12:31:22.378Z,0.90
2023-05-25T12:32:22.332Z,0.91
2023-05-25T12:33:22.283Z,0.95
2023-05-25T12:34:22.270Z,0.95
2023-05-25T12:35:22.259Z,0.95
2023-05-25T12:36:22.264Z,0.96
2023-05-25T12:37:21.279Z,0.97
2023-05-25T12:38:22.253Z,0.95
2023-05-25T12:39:23.899Z,0.95
2023-05-25T12:40:22.233Z,0.95
2023-05-25T12:41:22.231Z,0.94
2023-05-25T12:42:22.229Z,0.96
2023-05-25T12:43:22.215Z,0.94
2023-05-25T12:44:22.214Z,0.97
2023-05-25T12:45:22.190Z,0.94
2023-05-25T12:46:22.197Z,0.95
2023-05-25T12:47:22.175Z,0.93
2023-05-25T12:48:22.229Z,0.93
2023-05-25T12:49:22.163Z,0.93
2023-05-25T12:50:22.145Z,0.93
2023-05-25T12:51:22.154Z,0.93
2023-05-25T12:52:22.128Z,0.92
2023-05-25T12:53:21.144Z,0.90
2023-05-25T12:54:21.114Z,0.95
2023-05-25T12:55:22.131Z,0.91
2023-05-25T12:56:22.125Z,0.94
2023-05-25T12:57:22.101Z,0.93
2023-05-25T12:58:22.132Z,0.95
2023-05-25T12:59:22.101Z,0.95
2023-05-25T13:00:22.133Z,0.91
2023-05-25T13:01:22.124Z,0.94
2023-05-25T13:02:21.173Z,0.93
2023-05-25T13:03:22.076Z,0.93
2023-05-25T13:04:22.050Z,0.94
2023-05-25T13:05:22.198Z,0.95
2023-05-25T13:06:22.049Z,0.92
2023-05-25T13:07:22.023Z,0.96
2023-05-25T13:08:21.023Z,0.97
2023-05-25T13:09:22.028Z,0.88
2023-05-25T13:10:22.058Z,0.96
2023-05-25T13:11:21.008Z,0.87
2023-05-25T13:12:22.011Z,0.88
2023-05-25T13:13:21.990Z,0.88
2023-05-25T13:14:20.995Z,0.94
2023-05-25T13:15:22.059Z,0.91
2023-05-25T13:16:21.014Z,0.88
2023-05-25T13:17:22.032Z,0.97
2023-05-25T13:18:21.979Z,0.90
2023-05-25T13:19:21.078Z,0.96
2023-05-25T13:20:21.005Z,0.92